sensor_id;sensor_type;location;lat;lon;timestamp;P1;durP1;ratioP1;P2;durP2;ratioP2
23175;SDS011;19910;42.652;23.332;2022-07-22T00:01:51;5.78;;;2.92;;
23175;SDS011;19910;42.652;23.332;2022-07-22T00:04:18;6.03;;;2.95;;
23175;SDS011;19910;42.652;23.332;2022-07-22T00:06:45;5.50;;;2.70;;
23175;SDS011;19910;42.652;23.332;2022-07-22T00:09:11;8.63;;;3.95;;
23175;SDS011;19910;42.652;23.332;2022-07-22T00:11:40;4.93;;;3.33;;
23175;SDS011;19910;42.652;23.332;2022-07-22T00:14:06;4.65;;;2.83;;
23175;SDS011;19910;42.652;23.332;2022-07-22T00:16:33;7.38;;;3.15;;
23175;SDS011;19910;42.652;23.332;2022-07-22T00:19:00;6.10;;;2.58;;
23175;SDS011;19910;42.652;23.332;2022-07-22T00:21:27;6.55;;;3.35;;
23175;SDS011;19910;42.652;23.332;2022-07-22T00:23:54;6.28;;;3.70;;
23175;SDS011;19910;42.652;23.332;2022-07-22T00:26:21;6.07;;;3.22;;
23175;SDS011;19910;42.652;23.332;2022-07-22T00:28:49;5.97;;;3.17;;
23175;SDS011;19910;42.652;23.332;2022-07-22T00:31:16;5.28;;;2.58;;
23175;SDS011;19910;42.652;23.332;2022-07-22T00:33:43;4.70;;;2.92;;
23175;SDS011;19910;42.652;23.332;2022-07-22T00:36:10;7.90;;;2.78;;
23175;SDS011;19910;42.652;23.332;2022-07-22T00:38:37;5.65;;;3.13;;
23175;SDS011;19910;42.652;23.332;2022-07-22T00:41:04;5.43;;;2.30;;
23175;SDS011;19910;42.652;23.332;2022-07-22T00:46:20;4.68;;;3.15;;
23175;SDS011;19910;42.652;23.332;2022-07-22T00:48:48;4.10;;;2.75;;
23175;SDS011;19910;42.652;23.332;2022-07-22T00:51:15;3.95;;;2.78;;
23175;SDS011;19910;42.652;23.332;2022-07-22T00:53:43;11.90;;;3.10;;
23175;SDS011;19910;42.652;23.332;2022-07-22T00:56:10;3.47;;;2.58;;
23175;SDS011;19910;42.652;23.332;2022-07-22T00:58:37;4.90;;;3.05;;
23175;SDS011;19910;42.652;23.332;2022-07-22T01:01:05;3.70;;;2.97;;
23175;SDS011;19910;42.652;23.332;2022-07-22T01:03:32;3.72;;;2.45;;
23175;SDS011;19910;42.652;23.332;2022-07-22T01:05:59;7.65;;;2.83;;
23175;SDS011;19910;42.652;23.332;2022-07-22T01:08:26;6.15;;;2.58;;
23175;SDS011;19910;42.652;23.332;2022-07-22T01:10:53;5.35;;;3.40;;
23175;SDS011;19910;42.652;23.332;2022-07-22T01:13:20;5.38;;;2.67;;
23175;SDS011;19910;42.652;23.332;2022-07-22T01:15:47;4.05;;;2.60;;
23175;SDS011;19910;42.652;23.332;2022-07-22T01:18:15;5.03;;;2.92;;
23175;SDS011;19910;42.652;23.332;2022-07-22T01:20:43;6.43;;;2.72;;
23175;SDS011;19910;42.652;23.332;2022-07-22T01:23:10;5.80;;;2.58;;
23175;SDS011;19910;42.652;23.332;2022-07-22T01:25:36;5.07;;;2.42;;
23175;SDS011;19910;42.652;23.332;2022-07-22T01:28:03;6.57;;;2.65;;
23175;SDS011;19910;42.652;23.332;2022-07-22T01:30:30;4.57;;;3.28;;
23175;SDS011;19910;42.652;23.332;2022-07-22T01:32:57;4.95;;;2.45;;
23175;SDS011;19910;42.652;23.332;2022-07-22T01:35:24;5.07;;;3.05;;
23175;SDS011;19910;42.652;23.332;2022-07-22T01:37:52;5.95;;;2.80;;
23175;SDS011;19910;42.652;23.332;2022-07-22T01:40:19;6.82;;;2.80;;
23175;SDS011;19910;42.652;23.332;2022-07-22T01:42:46;6.05;;;3.00;;
23175;SDS011;19910;42.652;23.332;2022-07-22T01:45:13;4.32;;;2.95;;
23175;SDS011;19910;42.652;23.332;2022-07-22T01:47:40;4.72;;;2.58;;
23175;SDS011;19910;42.652;23.332;2022-07-22T01:50:07;5.47;;;2.90;;
23175;SDS011;19910;42.652;23.332;2022-07-22T01:52:36;8.30;;;3.00;;
23175;SDS011;19910;42.652;23.332;2022-07-22T01:55:06;6.70;;;2.83;;
23175;SDS011;19910;42.652;23.332;2022-07-22T01:57:35;4.10;;;2.63;;
23175;SDS011;19910;42.652;23.332;2022-07-22T02:00:03;7.80;;;3.05;;
23175;SDS011;19910;42.652;23.332;2022-07-22T02:02:32;4.47;;;2.42;;
23175;SDS011;19910;42.652;23.332;2022-07-22T02:04:58;5.07;;;2.97;;
23175;SDS011;19910;42.652;23.332;2022-07-22T02:07:26;4.30;;;2.70;;
23175;SDS011;19910;42.652;23.332;2022-07-22T02:09:53;6.45;;;2.75;;
23175;SDS011;19910;42.652;23.332;2022-07-22T02:12:21;3.03;;;2.63;;
23175;SDS011;19910;42.652;23.332;2022-07-22T02:14:49;6.70;;;2.92;;
23175;SDS011;19910;42.652;23.332;2022-07-22T02:17:15;4.25;;;2.88;;
23175;SDS011;19910;42.652;23.332;2022-07-22T02:19:42;4.10;;;2.60;;
23175;SDS011;19910;42.652;23.332;2022-07-22T02:22:09;3.60;;;2.42;;
23175;SDS011;19910;42.652;23.332;2022-07-22T02:24:36;4.03;;;2.63;;
23175;SDS011;19910;42.652;23.332;2022-07-22T02:27:03;4.80;;;2.78;;
23175;SDS011;19910;42.652;23.332;2022-07-22T02:29:31;5.00;;;2.75;;
23175;SDS011;19910;42.652;23.332;2022-07-22T02:31:59;4.10;;;2.45;;
23175;SDS011;19910;42.652;23.332;2022-07-22T02:34:27;3.80;;;2.60;;
23175;SDS011;19910;42.652;23.332;2022-07-22T02:36:54;3.30;;;2.60;;
23175;SDS011;19910;42.652;23.332;2022-07-22T02:39:21;5.95;;;2.95;;
23175;SDS011;19910;42.652;23.332;2022-07-22T02:41:48;4.40;;;2.40;;
23175;SDS011;19910;42.652;23.332;2022-07-22T02:44:15;8.52;;;3.38;;
23175;SDS011;19910;42.652;23.332;2022-07-22T02:46:43;5.00;;;2.45;;
23175;SDS011;19910;42.652;23.332;2022-07-22T02:49:10;3.40;;;2.70;;
23175;SDS011;19910;42.652;23.332;2022-07-22T02:51:37;5.18;;;3.22;;
23175;SDS011;19910;42.652;23.332;2022-07-22T02:54:04;4.72;;;3.17;;
23175;SDS011;19910;42.652;23.332;2022-07-22T02:56:30;6.60;;;3.20;;
23175;SDS011;19910;42.652;23.332;2022-07-22T02:58:57;4.00;;;2.70;;
23175;SDS011;19910;42.652;23.332;2022-07-22T03:01:24;6.78;;;2.90;;
23175;SDS011;19910;42.652;23.332;2022-07-22T03:03:53;4.70;;;3.20;;
23175;SDS011;19910;42.652;23.332;2022-07-22T03:06:19;9.05;;;3.30;;
23175;SDS011;19910;42.652;23.332;2022-07-22T03:08:47;4.53;;;2.97;;
23175;SDS011;19910;42.652;23.332;2022-07-22T03:11:14;6.32;;;3.30;;
23175;SDS011;19910;42.652;23.332;2022-07-22T03:13:41;7.35;;;3.45;;
23175;SDS011;19910;42.652;23.332;2022-07-22T03:16:08;7.35;;;3.03;;
23175;SDS011;19910;42.652;23.332;2022-07-22T03:18:35;4.53;;;2.78;;
23175;SDS011;19910;42.652;23.332;2022-07-22T03:21:03;3.60;;;2.80;;
23175;SDS011;19910;42.652;23.332;2022-07-22T03:23:30;9.05;;;3.33;;
23175;SDS011;19910;42.652;23.332;2022-07-22T03:25:57;5.13;;;3.10;;
23175;SDS011;19910;42.652;23.332;2022-07-22T03:28:24;6.13;;;3.33;;
23175;SDS011;19910;42.652;23.332;2022-07-22T03:30:52;4.88;;;3.08;;
23175;SDS011;19910;42.652;23.332;2022-07-22T03:33:19;5.05;;;3.30;;
23175;SDS011;19910;42.652;23.332;2022-07-22T03:35:46;4.10;;;2.97;;
23175;SDS011;19910;42.652;23.332;2022-07-22T03:38:14;6.53;;;3.42;;
23175;SDS011;19910;42.652;23.332;2022-07-22T03:40:41;5.47;;;2.80;;
23175;SDS011;19910;42.652;23.332;2022-07-22T03:43:08;9.98;;;3.97;;
23175;SDS011;19910;42.652;23.332;2022-07-22T03:45:35;5.75;;;4.55;;
23175;SDS011;19910;42.652;23.332;2022-07-22T03:48:02;9.63;;;4.22;;
23175;SDS011;19910;42.652;23.332;2022-07-22T03:50:29;6.78;;;4.10;;
23175;SDS011;19910;42.652;23.332;2022-07-22T03:52:56;6.95;;;4.40;;
23175;SDS011;19910;42.652;23.332;2022-07-22T03:55:24;5.40;;;4.00;;
23175;SDS011;19910;42.652;23.332;2022-07-22T03:57:51;5.97;;;4.10;;
23175;SDS011;19910;42.652;23.332;2022-07-22T04:00:18;5.88;;;4.47;;
23175;SDS011;19910;42.652;23.332;2022-07-22T04:02:45;5.53;;;4.32;;
23175;SDS011;19910;42.652;23.332;2022-07-22T04:05:12;5.00;;;4.20;;
23175;SDS011;19910;42.652;23.332;2022-07-22T04:07:39;6.90;;;4.90;;
23175;SDS011;19910;42.652;23.332;2022-07-22T04:10:06;8.75;;;4.78;;
23175;SDS011;19910;42.652;23.332;2022-07-22T04:12:35;6.25;;;4.00;;
23175;SDS011;19910;42.652;23.332;2022-07-22T04:15:04;9.32;;;4.60;;
23175;SDS011;19910;42.652;23.332;2022-07-22T04:17:32;6.18;;;4.43;;
23175;SDS011;19910;42.652;23.332;2022-07-22T04:19:59;5.10;;;4.15;;
23175;SDS011;19910;42.652;23.332;2022-07-22T04:22:26;5.35;;;3.90;;
23175;SDS011;19910;42.652;23.332;2022-07-22T04:24:53;7.47;;;4.28;;
23175;SDS011;19910;42.652;23.332;2022-07-22T04:27:21;8.18;;;4.78;;
23175;SDS011;19910;42.652;23.332;2022-07-22T04:29:50;6.38;;;4.65;;
23175;SDS011;19910;42.652;23.332;2022-07-22T04:32:17;10.10;;;4.63;;
23175;SDS011;19910;42.652;23.332;2022-07-22T04:34:44;8.80;;;4.75;;
23175;SDS011;19910;42.652;23.332;2022-07-22T04:37:10;5.95;;;4.90;;
23175;SDS011;19910;42.652;23.332;2022-07-22T04:39:37;7.65;;;5.20;;
23175;SDS011;19910;42.652;23.332;2022-07-22T04:42:04;7.90;;;4.72;;
23175;SDS011;19910;42.652;23.332;2022-07-22T04:44:32;6.47;;;4.70;;
23175;SDS011;19910;42.652;23.332;2022-07-22T04:47:00;8.05;;;4.82;;
23175;SDS011;19910;42.652;23.332;2022-07-22T04:49:26;8.85;;;5.28;;
23175;SDS011;19910;42.652;23.332;2022-07-22T04:51:57;8.30;;;5.05;;
23175;SDS011;19910;42.652;23.332;2022-07-22T04:54:23;9.70;;;5.45;;
23175;SDS011;19910;42.652;23.332;2022-07-22T04:56:50;8.77;;;5.28;;
23175;SDS011;19910;42.652;23.332;2022-07-22T04:59:17;6.85;;;4.93;;
23175;SDS011;19910;42.652;23.332;2022-07-22T05:01:44;7.78;;;5.43;;
23175;SDS011;19910;42.652;23.332;2022-07-22T05:04:12;8.15;;;5.15;;
23175;SDS011;19910;42.652;23.332;2022-07-22T05:06:39;10.60;;;5.47;;
23175;SDS011;19910;42.652;23.332;2022-07-22T05:09:08;9.70;;;5.38;;
23175;SDS011;19910;42.652;23.332;2022-07-22T05:11:35;7.28;;;5.30;;
23175;SDS011;19910;42.652;23.332;2022-07-22T05:14:02;7.90;;;5.80;;
23175;SDS011;19910;42.652;23.332;2022-07-22T05:16:29;7.32;;;6.00;;
23175;SDS011;19910;42.652;23.332;2022-07-22T05:18:56;10.30;;;5.55;;
23175;SDS011;19910;42.652;23.332;2022-07-22T05:21:24;9.32;;;4.97;;
23175;SDS011;19910;42.652;23.332;2022-07-22T05:23:53;5.57;;;4.90;;
23175;SDS011;19910;42.652;23.332;2022-07-22T05:26:23;7.32;;;5.00;;
23175;SDS011;19910;42.652;23.332;2022-07-22T05:28:53;10.88;;;5.45;;
23175;SDS011;19910;42.652;23.332;2022-07-22T05:31:21;7.32;;;5.03;;
23175;SDS011;19910;42.652;23.332;2022-07-22T05:33:48;7.63;;;5.25;;
23175;SDS011;19910;42.652;23.332;2022-07-22T05:36:15;8.90;;;5.10;;
23175;SDS011;19910;42.652;23.332;2022-07-22T05:38:43;8.93;;;5.05;;
23175;SDS011;19910;42.652;23.332;2022-07-22T05:41:10;6.95;;;5.03;;
23175;SDS011;19910;42.652;23.332;2022-07-22T05:43:37;6.35;;;4.93;;
23175;SDS011;19910;42.652;23.332;2022-07-22T05:46:04;9.35;;;5.07;;
23175;SDS011;19910;42.652;23.332;2022-07-22T05:48:32;6.43;;;5.03;;
23175;SDS011;19910;42.652;23.332;2022-07-22T05:50:59;7.15;;;4.72;;
23175;SDS011;19910;42.652;23.332;2022-07-22T05:53:26;9.48;;;5.45;;
23175;SDS011;19910;42.652;23.332;2022-07-22T05:55:54;7.20;;;5.20;;
23175;SDS011;19910;42.652;23.332;2022-07-22T05:58:21;13.77;;;5.22;;
23175;SDS011;19910;42.652;23.332;2022-07-22T06:00:48;11.63;;;5.53;;
23175;SDS011;19910;42.652;23.332;2022-07-22T06:03:14;6.20;;;5.05;;
23175;SDS011;19910;42.652;23.332;2022-07-22T06:05:41;6.80;;;5.18;;
23175;SDS011;19910;42.652;23.332;2022-07-22T06:08:08;8.23;;;5.57;;
23175;SDS011;19910;42.652;23.332;2022-07-22T06:10:35;5.45;;;4.57;;
23175;SDS011;19910;42.652;23.332;2022-07-22T06:13:03;5.00;;;4.47;;
23175;SDS011;19910;42.652;23.332;2022-07-22T06:15:30;8.65;;;5.38;;
23175;SDS011;19910;42.652;23.332;2022-07-22T06:17:56;7.28;;;4.97;;
23175;SDS011;19910;42.652;23.332;2022-07-22T06:20:23;6.07;;;4.78;;
23175;SDS011;19910;42.652;23.332;2022-07-22T06:22:50;6.18;;;4.13;;
23175;SDS011;19910;42.652;23.332;2022-07-22T06:25:17;7.20;;;4.57;;
23175;SDS011;19910;42.652;23.332;2022-07-22T06:27:44;5.78;;;4.30;;
23175;SDS011;19910;42.652;23.332;2022-07-22T06:30:12;8.43;;;4.60;;
23175;SDS011;19910;42.652;23.332;2022-07-22T06:32:40;7.43;;;4.32;;
23175;SDS011;19910;42.652;23.332;2022-07-22T06:35:07;6.35;;;4.55;;
23175;SDS011;19910;42.652;23.332;2022-07-22T06:37:35;7.25;;;4.38;;
23175;SDS011;19910;42.652;23.332;2022-07-22T06:40:02;6.25;;;4.15;;
23175;SDS011;19910;42.652;23.332;2022-07-22T06:42:30;6.95;;;4.40;;
23175;SDS011;19910;42.652;23.332;2022-07-22T06:44:56;5.57;;;4.32;;
23175;SDS011;19910;42.652;23.332;2022-07-22T06:47:25;10.90;;;4.80;;
23175;SDS011;19910;42.652;23.332;2022-07-22T06:49:51;9.43;;;4.25;;
23175;SDS011;19910;42.652;23.332;2022-07-22T06:52:19;7.00;;;4.10;;
23175;SDS011;19910;42.652;23.332;2022-07-22T06:54:46;6.78;;;3.90;;
23175;SDS011;19910;42.652;23.332;2022-07-22T06:57:12;6.78;;;4.28;;
23175;SDS011;19910;42.652;23.332;2022-07-22T06:59:39;7.88;;;4.55;;
23175;SDS011;19910;42.652;23.332;2022-07-22T07:02:06;5.28;;;3.50;;
23175;SDS011;19910;42.652;23.332;2022-07-22T07:04:35;5.90;;;4.20;;
23175;SDS011;19910;42.652;23.332;2022-07-22T07:07:01;7.97;;;4.10;;
23175;SDS011;19910;42.652;23.332;2022-07-22T07:09:32;5.40;;;3.97;;
23175;SDS011;19910;42.652;23.332;2022-07-22T07:11:59;7.10;;;3.72;;
23175;SDS011;19910;42.652;23.332;2022-07-22T07:14:25;6.70;;;3.60;;
23175;SDS011;19910;42.652;23.332;2022-07-22T07:16:52;7.45;;;3.88;;
23175;SDS011;19910;42.652;23.332;2022-07-22T07:19:20;6.78;;;4.30;;
23175;SDS011;19910;42.652;23.332;2022-07-22T07:21:48;6.13;;;3.90;;
23175;SDS011;19910;42.652;23.332;2022-07-22T07:24:15;6.50;;;3.70;;
23175;SDS011;19910;42.652;23.332;2022-07-22T07:26:42;6.80;;;3.60;;
23175;SDS011;19910;42.652;23.332;2022-07-22T07:29:09;10.13;;;3.97;;
23175;SDS011;19910;42.652;23.332;2022-07-22T07:31:36;5.32;;;3.58;;
23175;SDS011;19910;42.652;23.332;2022-07-22T07:34:02;7.30;;;3.63;;
23175;SDS011;19910;42.652;23.332;2022-07-22T07:36:29;6.40;;;4.28;;
23175;SDS011;19910;42.652;23.332;2022-07-22T07:38:58;3.58;;;3.10;;
23175;SDS011;19910;42.652;23.332;2022-07-22T07:41:25;4.32;;;3.35;;
23175;SDS011;19910;42.652;23.332;2022-07-22T07:43:52;4.28;;;3.55;;
23175;SDS011;19910;42.652;23.332;2022-07-22T07:46:19;5.07;;;3.45;;
23175;SDS011;19910;42.652;23.332;2022-07-22T07:48:46;5.00;;;3.70;;
23175;SDS011;19910;42.652;23.332;2022-07-22T07:51:13;8.30;;;3.72;;
23175;SDS011;19910;42.652;23.332;2022-07-22T07:53:40;6.15;;;3.55;;
23175;SDS011;19910;42.652;23.332;2022-07-22T07:56:09;7.13;;;3.25;;
23175;SDS011;19910;42.652;23.332;2022-07-22T07:58:35;5.70;;;3.80;;
23175;SDS011;19910;42.652;23.332;2022-07-22T08:01:03;6.45;;;3.88;;
23175;SDS011;19910;42.652;23.332;2022-07-22T08:03:30;8.70;;;4.22;;
23175;SDS011;19910;42.652;23.332;2022-07-22T08:05:56;10.98;;;4.25;;
23175;SDS011;19910;42.652;23.332;2022-07-22T08:08:24;6.72;;;3.90;;
23175;SDS011;19910;42.652;23.332;2022-07-22T08:10:51;6.35;;;3.58;;
23175;SDS011;19910;42.652;23.332;2022-07-22T08:13:20;3.75;;;3.15;;
23175;SDS011;19910;42.652;23.332;2022-07-22T08:15:46;3.35;;;3.00;;
23175;SDS011;19910;42.652;23.332;2022-07-22T08:18:13;4.13;;;3.05;;
23175;SDS011;19910;42.652;23.332;2022-07-22T08:20:41;3.50;;;3.08;;
23175;SDS011;19910;42.652;23.332;2022-07-22T08:23:08;4.90;;;3.08;;
23175;SDS011;19910;42.652;23.332;2022-07-22T08:25:35;5.80;;;3.25;;
23175;SDS011;19910;42.652;23.332;2022-07-22T08:28:02;6.38;;;3.25;;
23175;SDS011;19910;42.652;23.332;2022-07-22T08:30:30;9.02;;;3.60;;
23175;SDS011;19910;42.652;23.332;2022-07-22T08:32:58;4.60;;;3.38;;
23175;SDS011;19910;42.652;23.332;2022-07-22T08:35:25;4.75;;;3.33;;
23175;SDS011;19910;42.652;23.332;2022-07-22T08:37:52;5.40;;;3.30;;
23175;SDS011;19910;42.652;23.332;2022-07-22T08:40:19;5.75;;;3.35;;
23175;SDS011;19910;42.652;23.332;2022-07-22T08:42:47;7.20;;;3.20;;
23175;SDS011;19910;42.652;23.332;2022-07-22T08:45:17;4.85;;;3.15;;
23175;SDS011;19910;42.652;23.332;2022-07-22T08:47:47;4.28;;;3.20;;
23175;SDS011;19910;42.652;23.332;2022-07-22T08:50:14;4.88;;;3.03;;
23175;SDS011;19910;42.652;23.332;2022-07-22T08:52:44;6.13;;;2.97;;
23175;SDS011;19910;42.652;23.332;2022-07-22T08:55:12;5.25;;;3.00;;
23175;SDS011;19910;42.652;23.332;2022-07-22T08:57:43;4.85;;;2.83;;
23175;SDS011;19910;42.652;23.332;2022-07-22T09:00:12;4.93;;;3.28;;
23175;SDS011;19910;42.652;23.332;2022-07-22T09:02:41;5.85;;;3.00;;
23175;SDS011;19910;42.652;23.332;2022-07-22T09:05:10;7.68;;;3.63;;
23175;SDS011;19910;42.652;23.332;2022-07-22T09:07:39;5.20;;;3.35;;
23175;SDS011;19910;42.652;23.332;2022-07-22T09:10:13;3.83;;;3.15;;
23175;SDS011;19910;42.652;23.332;2022-07-22T09:12:50;5.88;;;3.47;;
23175;SDS011;19910;42.652;23.332;2022-07-22T09:15:24;4.03;;;3.40;;
23175;SDS011;19910;42.652;23.332;2022-07-22T09:17:52;9.00;;;3.20;;
23175;SDS011;19910;42.652;23.332;2022-07-22T09:20:22;6.28;;;3.20;;
23175;SDS011;19910;42.652;23.332;2022-07-22T09:22:53;7.00;;;3.63;;
23175;SDS011;19910;42.652;23.332;2022-07-22T09:25:22;3.92;;;3.47;;
23175;SDS011;19910;42.652;23.332;2022-07-22T09:27:53;4.70;;;3.58;;
23175;SDS011;19910;42.652;23.332;2022-07-22T09:30:22;4.15;;;3.45;;
23175;SDS011;19910;42.652;23.332;2022-07-22T09:32:53;4.20;;;3.60;;
23175;SDS011;19910;42.652;23.332;2022-07-22T09:35:23;8.20;;;3.42;;
23175;SDS011;19910;42.652;23.332;2022-07-22T09:37:51;5.55;;;3.28;;
23175;SDS011;19910;42.652;23.332;2022-07-22T09:40:21;4.03;;;3.05;;
23175;SDS011;19910;42.652;23.332;2022-07-22T09:42:51;7.82;;;3.30;;
23175;SDS011;19910;42.652;23.332;2022-07-22T09:45:20;5.18;;;3.30;;
23175;SDS011;19910;42.652;23.332;2022-07-22T09:47:48;4.22;;;3.05;;
23175;SDS011;19910;42.652;23.332;2022-07-22T09:50:18;6.07;;;3.60;;
23175;SDS011;19910;42.652;23.332;2022-07-22T09:52:49;3.50;;;2.92;;
23175;SDS011;19910;42.652;23.332;2022-07-22T09:55:18;5.88;;;3.13;;
23175;SDS011;19910;42.652;23.332;2022-07-22T09:57:46;4.03;;;3.17;;
23175;SDS011;19910;42.652;23.332;2022-07-22T10:00:14;4.70;;;3.10;;
23175;SDS011;19910;42.652;23.332;2022-07-22T10:02:47;7.47;;;3.42;;
23175;SDS011;19910;42.652;23.332;2022-07-22T10:05:16;4.57;;;3.40;;
23175;SDS011;19910;42.652;23.332;2022-07-22T10:07:45;4.78;;;3.15;;
23175;SDS011;19910;42.652;23.332;2022-07-22T10:10:14;5.30;;;3.80;;
23175;SDS011;19910;42.652;23.332;2022-07-22T10:12:43;4.25;;;3.10;;
23175;SDS011;19910;42.652;23.332;2022-07-22T10:15:12;5.70;;;3.45;;
23175;SDS011;19910;42.652;23.332;2022-07-22T10:17:40;3.55;;;3.25;;
23175;SDS011;19910;42.652;23.332;2022-07-22T10:20:10;4.75;;;3.83;;
23175;SDS011;19910;42.652;23.332;2022-07-22T10:22:50;5.28;;;3.97;;
23175;SDS011;19910;42.652;23.332;2022-07-22T10:25:21;5.13;;;3.33;;
23175;SDS011;19910;42.652;23.332;2022-07-22T10:27:51;5.85;;;3.80;;
23175;SDS011;19910;42.652;23.332;2022-07-22T10:30:20;6.10;;;3.55;;
23175;SDS011;19910;42.652;23.332;2022-07-22T10:35:32;7.15;;;3.50;;
23175;SDS011;19910;42.652;23.332;2022-07-22T10:38:00;4.40;;;3.60;;
23175;SDS011;19910;42.652;23.332;2022-07-22T10:40:32;6.72;;;3.83;;
23175;SDS011;19910;42.652;23.332;2022-07-22T10:43:13;4.10;;;3.38;;
23175;SDS011;19910;42.652;23.332;2022-07-22T10:45:41;5.55;;;3.78;;
23175;SDS011;19910;42.652;23.332;2022-07-22T10:48:11;8.57;;;3.50;;
23175;SDS011;19910;42.652;23.332;2022-07-22T10:50:46;4.82;;;2.95;;
23175;SDS011;19910;42.652;23.332;2022-07-22T10:53:16;6.82;;;3.40;;
23175;SDS011;19910;42.652;23.332;2022-07-22T10:55:59;3.00;;;2.80;;
23175;SDS011;19910;42.652;23.332;2022-07-22T11:01:24;3.70;;;3.40;;
23175;SDS011;19910;42.652;23.332;2022-07-22T11:03:54;7.85;;;3.80;;
23175;SDS011;19910;42.652;23.332;2022-07-22T11:06:26;4.22;;;3.08;;
23175;SDS011;19910;42.652;23.332;2022-07-22T11:08:55;4.40;;;3.42;;
23175;SDS011;19910;42.652;23.332;2022-07-22T11:11:35;4.70;;;3.17;;
23175;SDS011;19910;42.652;23.332;2022-07-22T11:14:10;4.70;;;3.28;;
23175;SDS011;19910;42.652;23.332;2022-07-22T11:16:46;4.13;;;3.17;;
23175;SDS011;19910;42.652;23.332;2022-07-22T11:19:16;4.03;;;3.50;;
23175;SDS011;19910;42.652;23.332;2022-07-22T11:21:48;3.92;;;3.10;;
23175;SDS011;19910;42.652;23.332;2022-07-22T11:24:16;6.35;;;3.33;;
23175;SDS011;19910;42.652;23.332;2022-07-22T11:26:47;4.30;;;3.17;;
23175;SDS011;19910;42.652;23.332;2022-07-22T11:29:17;5.30;;;3.22;;
23175;SDS011;19910;42.652;23.332;2022-07-22T11:31:53;5.05;;;2.88;;
23175;SDS011;19910;42.652;23.332;2022-07-22T11:34:20;7.15;;;3.38;;
23175;SDS011;19910;42.652;23.332;2022-07-22T11:36:49;5.22;;;3.28;;
23175;SDS011;19910;42.652;23.332;2022-07-22T11:39:18;4.97;;;3.67;;
23175;SDS011;19910;42.652;23.332;2022-07-22T11:41:48;9.18;;;3.60;;
23175;SDS011;19910;42.652;23.332;2022-07-22T11:44:17;4.95;;;3.20;;
23175;SDS011;19910;42.652;23.332;2022-07-22T11:46:45;5.13;;;3.45;;
23175;SDS011;19910;42.652;23.332;2022-07-22T11:49:13;7.18;;;3.80;;
23175;SDS011;19910;42.652;23.332;2022-07-22T11:51:41;8.05;;;3.47;;
23175;SDS011;19910;42.652;23.332;2022-07-22T11:54:08;4.35;;;3.28;;
23175;SDS011;19910;42.652;23.332;2022-07-22T11:56:35;4.93;;;3.67;;
23175;SDS011;19910;42.652;23.332;2022-07-22T11:59:04;4.40;;;3.30;;
23175;SDS011;19910;42.652;23.332;2022-07-22T12:01:32;3.97;;;3.25;;
23175;SDS011;19910;42.652;23.332;2022-07-22T12:04:02;4.75;;;3.55;;
23175;SDS011;19910;42.652;23.332;2022-07-22T12:06:31;4.70;;;3.55;;
23175;SDS011;19910;42.652;23.332;2022-07-22T12:09:04;5.35;;;3.60;;
23175;SDS011;19910;42.652;23.332;2022-07-22T12:11:34;5.63;;;3.60;;
23175;SDS011;19910;42.652;23.332;2022-07-22T12:14:07;4.15;;;3.40;;
23175;SDS011;19910;42.652;23.332;2022-07-22T12:16:36;5.57;;;3.47;;
23175;SDS011;19910;42.652;23.332;2022-07-22T12:19:05;6.55;;;3.55;;
23175;SDS011;19910;42.652;23.332;2022-07-22T12:21:33;6.15;;;3.95;;
23175;SDS011;19910;42.652;23.332;2022-07-22T12:24:02;4.93;;;3.80;;
23175;SDS011;19910;42.652;23.332;2022-07-22T12:26:36;5.00;;;3.20;;
23175;SDS011;19910;42.652;23.332;2022-07-22T12:29:19;4.07;;;3.15;;
23175;SDS011;19910;42.652;23.332;2022-07-22T12:31:48;5.97;;;3.60;;
23175;SDS011;19910;42.652;23.332;2022-07-22T12:34:28;5.93;;;3.67;;
23175;SDS011;19910;42.652;23.332;2022-07-22T12:37:01;4.60;;;3.50;;
23175;SDS011;19910;42.652;23.332;2022-07-22T12:39:39;5.20;;;3.40;;
23175;SDS011;19910;42.652;23.332;2022-07-22T12:42:16;4.50;;;2.97;;
23175;SDS011;19910;42.652;23.332;2022-07-22T12:44:51;5.97;;;3.28;;
23175;SDS011;19910;42.652;23.332;2022-07-22T12:50:15;5.68;;;3.47;;
23175;SDS011;19910;42.652;23.332;2022-07-22T12:52:46;5.68;;;3.70;;
23175;SDS011;19910;42.652;23.332;2022-07-22T12:55:13;5.28;;;3.60;;
23175;SDS011;19910;42.652;23.332;2022-07-22T12:57:39;4.63;;;3.08;;
23175;SDS011;19910;42.652;23.332;2022-07-22T13:00:08;4.28;;;2.55;;
23175;SDS011;19910;42.652;23.332;2022-07-22T13:02:36;4.03;;;3.20;;
23175;SDS011;19910;42.652;23.332;2022-07-22T13:05:04;3.28;;;2.92;;
23175;SDS011;19910;42.652;23.332;2022-07-22T13:07:31;4.72;;;3.00;;
23175;SDS011;19910;42.652;23.332;2022-07-22T13:09:58;3.63;;;2.65;;
23175;SDS011;19910;42.652;23.332;2022-07-22T13:12:25;5.00;;;3.35;;
23175;SDS011;19910;42.652;23.332;2022-07-22T13:14:52;4.72;;;3.15;;
23175;SDS011;19910;42.652;23.332;2022-07-22T13:17:24;4.93;;;3.08;;
23175;SDS011;19910;42.652;23.332;2022-07-22T13:19:50;4.35;;;2.88;;
23175;SDS011;19910;42.652;23.332;2022-07-22T13:22:17;3.33;;;2.53;;
23175;SDS011;19910;42.652;23.332;2022-07-22T13:24:47;4.43;;;2.97;;
23175;SDS011;19910;42.652;23.332;2022-07-22T13:27:15;3.60;;;3.03;;
23175;SDS011;19910;42.652;23.332;2022-07-22T13:29:42;3.50;;;3.00;;
23175;SDS011;19910;42.652;23.332;2022-07-22T13:32:09;6.57;;;3.45;;
23175;SDS011;19910;42.652;23.332;2022-07-22T13:34:37;5.53;;;2.95;;
23175;SDS011;19910;42.652;23.332;2022-07-22T13:37:04;4.55;;;2.80;;
23175;SDS011;19910;42.652;23.332;2022-07-22T13:39:31;4.00;;;3.30;;
23175;SDS011;19910;42.652;23.332;2022-07-22T13:41:58;3.20;;;2.78;;
23175;SDS011;19910;42.652;23.332;2022-07-22T13:44:25;4.50;;;2.83;;
23175;SDS011;19910;42.652;23.332;2022-07-22T13:46:51;5.45;;;2.95;;
23175;SDS011;19910;42.652;23.332;2022-07-22T13:49:18;5.03;;;2.97;;
23175;SDS011;19910;42.652;23.332;2022-07-22T13:51:48;4.03;;;2.67;;
23175;SDS011;19910;42.652;23.332;2022-07-22T13:54:16;3.83;;;2.92;;
23175;SDS011;19910;42.652;23.332;2022-07-22T13:56:43;3.45;;;3.15;;
23175;SDS011;19910;42.652;23.332;2022-07-22T13:59:12;5.10;;;3.08;;
23175;SDS011;19910;42.652;23.332;2022-07-22T14:01:39;3.00;;;2.67;;
23175;SDS011;19910;42.652;23.332;2022-07-22T14:04:06;5.63;;;2.90;;
23175;SDS011;19910;42.652;23.332;2022-07-22T14:06:33;4.25;;;3.00;;
23175;SDS011;19910;42.652;23.332;2022-07-22T14:09:02;3.97;;;3.03;;
23175;SDS011;19910;42.652;23.332;2022-07-22T14:11:30;5.38;;;2.83;;
23175;SDS011;19910;42.652;23.332;2022-07-22T14:13:56;4.07;;;2.75;;
23175;SDS011;19910;42.652;23.332;2022-07-22T14:16:23;5.38;;;2.80;;
23175;SDS011;19910;42.652;23.332;2022-07-22T14:19:00;6.35;;;2.92;;
23175;SDS011;19910;42.652;23.332;2022-07-22T14:21:27;3.08;;;2.42;;
23175;SDS011;19910;42.652;23.332;2022-07-22T14:23:54;5.78;;;2.90;;
23175;SDS011;19910;42.652;23.332;2022-07-22T14:26:22;3.55;;;2.58;;
23175;SDS011;19910;42.652;23.332;2022-07-22T14:28:49;6.13;;;2.90;;
23175;SDS011;19910;42.652;23.332;2022-07-22T14:31:20;4.03;;;2.75;;
23175;SDS011;19910;42.652;23.332;2022-07-22T14:33:48;4.95;;;3.15;;
23175;SDS011;19910;42.652;23.332;2022-07-22T14:36:15;5.20;;;2.80;;
23175;SDS011;19910;42.652;23.332;2022-07-22T14:38:45;7.20;;;3.08;;
23175;SDS011;19910;42.652;23.332;2022-07-22T14:41:11;5.35;;;3.20;;
23175;SDS011;19910;42.652;23.332;2022-07-22T14:43:40;3.90;;;2.90;;
23175;SDS011;19910;42.652;23.332;2022-07-22T14:46:06;3.63;;;2.63;;
23175;SDS011;19910;42.652;23.332;2022-07-22T14:48:34;7.18;;;2.85;;
23175;SDS011;19910;42.652;23.332;2022-07-22T14:51:03;4.13;;;2.85;;